Belleville, Illinois
Current Conditions -  °F | °C
As of 12:58 PM on Friday 21 Nov 2014 (Local Time) from KBLV Reporting Station
Overcast Overcast  
Wind Chill: 31°   Ceiling: 4000
Heat Index: 39°   Visibility: 10mi
Dew Point: 20°   Wind: 13mph
Humidity: 47%   Direction: 120°ESE
Pressure: 30.36"   Gusts: NA
Location:  38.51°N, 89.98°W
Report Text: KBLV 211858Z AUTO 12011KT 10SM OVC040 04/M07 A3036 RMK AO2 SLP289 T00391066
Loading
Personal Weather Stations






























Interactive Weather Map New forecast layout! Learn more

10-Day Weather Forecast

Advertisements
Track Severe Weather on mobile